Mnd Bayou, Mississippi
Current Conditions -  °F | °C
As of 2:35 AM on Saturday 20 Dec 2014 (Local Time) from KRNV Reporting Station
Scattered Clouds Scattered Clouds  
Wind Chill: 35°   Ceiling: Unl
Heat Index: 39°   Visibility: 10mi
Dew Point: 39°   Wind: 6mph
Humidity: 99%   Direction: 360°N
Pressure: 30.22"   Gusts: NA
Location:  33.8979°N, 90.7189°W
Report Text: KRNV 200835Z AUTO 36005KT 10SM SCT095 04/04 A3022 RMK AO2 T00410040
Loading
Personal Weather Stations






























Interactive Weather Map New forecast layout! Learn more

10-Day Weather Forecast

Advertisements
Track Severe Weather on mobile